createdAt,value
2023-04-24T00:01:38.028Z,3.00
2023-04-24T00:04:05.517Z,3.38
2023-04-24T00:06:35.664Z,2.13
2023-04-24T00:09:03.526Z,1.55
2023-04-24T00:11:31.230Z,1.85
2023-04-24T00:13:58.806Z,1.80
2023-04-24T00:16:26.070Z,1.50
2023-04-24T00:18:57.139Z,1.13
2023-04-24T00:21:26.679Z,1.52
2023-04-24T00:23:54.456Z,2.67
2023-04-24T00:26:21.620Z,1.20
2023-04-24T00:28:48.890Z,1.23
2023-04-24T00:31:16.101Z,2.63
2023-04-24T00:33:43.529Z,3.00
2023-04-24T00:36:10.708Z,1.92
2023-04-24T00:38:37.856Z,1.98
2023-04-24T00:41:05.153Z,1.55
2023-04-24T00:43:33.262Z,1.45
2023-04-24T00:46:02.775Z,1.85
2023-04-24T00:48:30.165Z,1.70
2023-04-24T00:50:58.291Z,2.85
2023-04-24T00:53:25.760Z,2.60
2023-04-24T00:55:53.237Z,1.35
2023-04-24T00:58:20.656Z,1.95
2023-04-24T01:00:48.248Z,2.53
2023-04-24T01:03:15.776Z,2.50
2023-04-24T01:05:43.631Z,2.15
2023-04-24T01:08:11.102Z,2.15
2023-04-24T01:10:38.588Z,1.50
2023-04-24T01:13:05.984Z,2.55
2023-04-24T01:15:33.281Z,2.58
2023-04-24T01:18:00.611Z,2.05
2023-04-24T01:20:27.932Z,0.65
2023-04-24T01:22:57.534Z,1.52
2023-04-24T01:25:26.722Z,2.70
2023-04-24T01:27:53.926Z,3.05
2023-04-24T01:30:21.284Z,1.80
2023-04-24T01:32:49.145Z,2.78
2023-04-24T01:35:16.662Z,1.50
2023-04-24T01:37:43.909Z,3.15
2023-04-24T01:40:11.288Z,0.82
2023-04-24T01:42:38.624Z,1.77
2023-04-24T01:45:06.953Z,2.33
2023-04-24T01:47:34.239Z,1.77
2023-04-24T01:50:01.428Z,1.50
2023-04-24T01:52:29.885Z,1.95
2023-04-24T01:54:57.126Z,2.55
2023-04-24T01:57:24.680Z,1.48
2023-04-24T01:59:52.536Z,1.52
2023-04-24T02:02:22.261Z,0.80
2023-04-24T02:04:49.620Z,2.95
2023-04-24T02:07:16.800Z,1.90
2023-04-24T02:09:44.247Z,1.95
2023-04-24T02:12:11.603Z,1.38
2023-04-24T02:14:38.858Z,2.65
2023-04-24T02:17:06.116Z,0.85
2023-04-24T02:19:33.370Z,0.90
2023-04-24T02:22:00.567Z,1.77
2023-04-24T02:24:27.752Z,1.52
2023-04-24T02:26:54.935Z,1.25
2023-04-24T02:29:22.140Z,2.83
2023-04-24T02:31:49.322Z,2.60
2023-04-24T02:34:17.316Z,2.10
2023-04-24T02:36:44.561Z,2.72
2023-04-24T02:39:11.748Z,2.40
2023-04-24T02:41:38.917Z,2.08
2023-04-24T02:44:06.070Z,1.15
2023-04-24T02:46:33.267Z,2.05
2023-04-24T02:49:00.479Z,2.63
2023-04-24T02:51:27.903Z,1.00
2023-04-24T02:53:55.041Z,1.33
2023-04-24T02:56:22.294Z,2.08
2023-04-24T02:58:49.462Z,2.53
2023-04-24T03:01:16.743Z,1.65
2023-04-24T03:03:44.173Z,1.63
2023-04-24T03:06:11.734Z,1.10
2023-04-24T03:08:38.876Z,0.73
2023-04-24T03:11:06.148Z,2.30
2023-04-24T03:13:33.335Z,2.47
2023-04-24T03:16:00.604Z,1.88
2023-04-24T03:18:27.788Z,1.63
2023-04-24T03:20:55.017Z,0.68
2023-04-24T03:23:22.257Z,1.80
2023-04-24T03:25:49.593Z,1.48
2023-04-24T03:28:16.850Z,1.23
2023-04-24T03:30:44.089Z,1.42
2023-04-24T03:33:11.361Z,3.72
2023-04-24T03:35:38.610Z,2.13
2023-04-24T03:38:05.764Z,1.55
2023-04-24T03:40:34.510Z,1.17
2023-04-24T03:43:01.783Z,2.28
2023-04-24T03:45:28.994Z,1.10
2023-04-24T03:47:56.335Z,0.70
2023-04-24T03:50:23.582Z,2.03
2023-04-24T03:52:50.798Z,1.92
2023-04-24T03:55:18.065Z,1.00
2023-04-24T03:57:45.231Z,1.63
2023-04-24T04:00:12.898Z,1.55
2023-04-24T04:02:40.244Z,1.58
2023-04-24T04:05:07.609Z,1.13
2023-04-24T04:07:34.889Z,2.10
2023-04-24T04:10:02.197Z,2.42
2023-04-24T04:12:29.446Z,0.68
2023-04-24T04:14:56.719Z,3.17
2023-04-24T04:17:23.930Z,2.13
2023-04-24T04:19:51.746Z,2.17
2023-04-24T04:22:18.940Z,1.35
2023-04-24T04:24:47.301Z,2.00
2023-04-24T04:27:14.553Z,1.00
2023-04-24T04:29:41.945Z,2.47
2023-04-24T04:32:09.514Z,1.33
2023-04-24T04:34:38.629Z,0.52
2023-04-24T04:37:07.496Z,1.25
2023-04-24T04:39:34.724Z,1.20
2023-04-24T04:42:01.964Z,2.03
2023-04-24T04:44:30.603Z,1.20
2023-04-24T04:46:58.539Z,2.60
2023-04-24T04:49:25.844Z,1.55
2023-04-24T04:51:53.020Z,1.90
2023-04-24T04:54:20.413Z,1.08
2023-04-24T04:56:47.650Z,3.15
2023-04-24T04:59:14.831Z,2.38
2023-04-24T05:01:42.280Z,1.15
2023-04-24T05:04:09.993Z,1.38
2023-04-24T05:06:37.421Z,0.98
2023-04-24T05:09:04.790Z,1.45
2023-04-24T05:11:32.061Z,1.95
2023-04-24T05:13:59.410Z,1.50
2023-04-24T05:16:26.764Z,2.30
2023-04-24T05:18:54.080Z,2.25
2023-04-24T05:21:21.712Z,2.65
2023-04-24T05:23:48.895Z,2.25
2023-04-24T05:26:16.596Z,1.80
2023-04-24T05:28:43.766Z,2.10
2023-04-24T05:31:11.322Z,1.58
2023-04-24T05:33:38.567Z,1.70
2023-04-24T05:36:06.663Z,0.55
2023-04-24T05:38:34.255Z,2.50
2023-04-24T05:41:01.532Z,2.10
2023-04-24T05:43:28.735Z,2.95
2023-04-24T05:45:56.404Z,2.17
2023-04-24T05:48:23.933Z,2.30
2023-04-24T05:50:51.780Z,2.78
2023-04-24T05:53:18.962Z,2.03
2023-04-24T05:55:46.365Z,2.70
2023-04-24T05:58:14.140Z,2.22
2023-04-24T06:00:43.549Z,2.88
2023-04-24T06:03:10.918Z,3.00
2023-04-24T06:05:38.362Z,2.20
2023-04-24T06:08:05.672Z,2.90
2023-04-24T06:10:32.847Z,2.33
2023-04-24T06:13:03.030Z,0.88
2023-04-24T06:15:32.033Z,1.60
2023-04-24T06:17:59.821Z,1.35
2023-04-24T06:20:27.281Z,1.15
2023-04-24T06:22:54.915Z,1.05
2023-04-24T06:25:22.214Z,1.00
2023-04-24T06:27:49.450Z,0.88
2023-04-24T06:30:16.634Z,1.30
2023-04-24T06:32:43.913Z,1.10
2023-04-24T06:35:12.538Z,0.90
2023-04-24T06:37:43.520Z,1.30
2023-04-24T06:40:11.313Z,1.20
2023-04-24T06:42:38.569Z,1.60
2023-04-24T06:45:06.211Z,1.60
2023-04-24T06:47:33.534Z,1.38
2023-04-24T06:50:00.979Z,1.30
2023-04-24T06:52:28.432Z,1.25
2023-04-24T06:55:01.688Z,1.30
2023-04-24T06:57:28.946Z,1.55
2023-04-24T06:59:56.334Z,1.15
2023-04-24T07:02:23.955Z,1.35
2023-04-24T07:04:51.222Z,1.20
2023-04-24T07:07:18.415Z,1.20
2023-04-24T07:09:46.612Z,1.70
2023-04-24T07:12:14.589Z,1.35
2023-04-24T07:14:41.827Z,1.02
2023-04-24T07:17:09.338Z,1.33
2023-04-24T07:19:36.598Z,1.63
2023-04-24T07:22:04.536Z,1.40
2023-04-24T07:24:33.744Z,1.65
2023-04-24T07:27:02.331Z,1.35
2023-04-24T07:29:29.704Z,1.10
2023-04-24T07:31:57.661Z,1.10
2023-04-24T07:34:25.063Z,1.10
2023-04-24T07:36:52.377Z,1.25
2023-04-24T07:39:20.090Z,1.05
2023-04-24T07:41:47.436Z,1.58
2023-04-24T07:44:14.667Z,1.42
2023-04-24T07:46:42.115Z,1.60
2023-04-24T07:49:13.671Z,1.40
2023-04-24T07:51:42.502Z,1.30
2023-04-24T07:54:10.153Z,1.75
2023-04-24T07:56:40.009Z,1.40
2023-04-24T07:59:07.737Z,1.20
2023-04-24T08:01:34.942Z,1.70
2023-04-24T08:04:02.374Z,1.65
2023-04-24T08:06:31.531Z,1.35
2023-04-24T08:08:59.637Z,1.30
2023-04-24T08:11:27.185Z,1.20
2023-04-24T08:13:55.832Z,1.38
2023-04-24T08:16:24.973Z,1.38
2023-04-24T08:18:52.478Z,2.00
2023-04-24T08:21:20.000Z,1.85
2023-04-24T08:23:47.564Z,1.25
2023-04-24T08:26:15.373Z,1.00
2023-04-24T08:28:42.661Z,1.40
2023-04-24T08:31:09.859Z,1.33
2023-04-24T08:33:37.088Z,1.80
2023-04-24T08:36:05.250Z,1.50
2023-04-24T08:38:32.492Z,1.70
2023-04-24T08:41:00.512Z,1.20
2023-04-24T08:43:28.308Z,1.45
2023-04-24T08:45:57.612Z,1.38
2023-04-24T08:53:59.950Z,1.17
2023-04-24T08:56:28.131Z,1.08
2023-04-24T08:58:55.889Z,1.17
2023-04-24T09:01:25.279Z,1.50
2023-04-24T09:03:53.235Z,1.67
2023-04-24T09:06:21.037Z,1.55
2023-04-24T09:08:48.948Z,1.30
2023-04-24T09:11:16.343Z,1.63
2023-04-24T09:13:44.552Z,1.30
2023-04-24T09:16:11.971Z,1.10
2023-04-24T09:18:39.184Z,1.35
2023-04-24T09:21:09.382Z,1.20
2023-04-24T09:23:37.072Z,0.98
2023-04-24T09:26:08.401Z,1.60
2023-04-24T09:28:39.669Z,1.60
2023-04-24T09:31:07.079Z,1.35
2023-04-24T09:33:36.934Z,0.75
2023-04-24T09:36:04.468Z,1.45
2023-04-24T09:38:35.561Z,1.33
2023-04-24T09:41:04.609Z,1.90
2023-04-24T09:43:32.203Z,1.70
2023-04-24T09:46:00.234Z,1.30
2023-04-24T09:48:37.550Z,2.15
2023-04-24T09:51:05.522Z,1.30
2023-04-24T09:53:32.726Z,1.45
2023-04-24T09:56:10.146Z,1.52
2023-04-24T09:58:38.261Z,1.25
2023-04-24T10:01:05.652Z,1.63
2023-04-24T10:03:33.720Z,1.55
2023-04-24T10:06:02.087Z,1.20
2023-04-24T10:08:35.574Z,1.00
2023-04-24T10:11:03.096Z,1.30
2023-04-24T10:13:30.384Z,1.25
2023-04-24T10:15:58.499Z,1.25
2023-04-24T10:18:25.976Z,1.15
2023-04-24T10:20:55.835Z,1.65
2023-04-24T10:23:24.223Z,0.90
2023-04-24T10:25:52.491Z,1.05
2023-04-24T10:28:20.561Z,0.80
2023-04-24T10:30:48.272Z,1.10
2023-04-24T10:33:15.735Z,0.98
2023-04-24T10:35:44.706Z,1.35
2023-04-24T10:38:15.760Z,1.05
2023-04-24T10:40:44.885Z,1.50
2023-04-24T10:43:12.487Z,1.27
2023-04-24T10:45:40.497Z,0.73
2023-04-24T10:48:14.191Z,1.35
2023-04-24T10:50:46.095Z,1.35
2023-04-24T10:53:18.048Z,1.00
2023-04-24T10:55:46.812Z,1.10
2023-04-24T10:58:15.779Z,1.02
2023-04-24T11:00:43.356Z,1.20
2023-04-24T11:03:29.757Z,0.95
2023-04-24T11:06:00.131Z,1.10
2023-04-24T11:08:41.312Z,1.10
2023-04-24T11:11:13.012Z,0.88
2023-04-24T11:13:58.070Z,0.80
2023-04-24T11:16:25.426Z,1.10
2023-04-24T11:19:02.526Z,0.85
2023-04-24T11:21:50.052Z,1.00
2023-04-24T11:24:36.162Z,0.60
2023-04-24T11:27:06.762Z,1.08
2023-04-24T11:29:52.893Z,0.85
2023-04-24T11:32:21.995Z,0.80
2023-04-24T11:34:57.247Z,0.88
2023-04-24T11:37:37.320Z,0.60
2023-04-24T11:40:05.774Z,0.82
2023-04-24T11:42:36.861Z,0.82
2023-04-24T11:45:08.948Z,0.55
2023-04-24T11:47:36.248Z,0.77
2023-04-24T11:50:04.372Z,0.88
2023-04-24T11:52:32.332Z,0.70
2023-04-24T11:54:59.815Z,1.02
2023-04-24T11:57:29.967Z,0.55
2023-04-24T11:59:57.209Z,0.70
2023-04-24T12:02:28.396Z,0.68
2023-04-24T12:04:56.422Z,0.35
2023-04-24T12:07:25.373Z,0.65
2023-04-24T12:10:00.944Z,0.60
2023-04-24T12:12:28.934Z,1.10
2023-04-24T12:14:57.449Z,0.75
2023-04-24T12:17:32.076Z,0.65
2023-04-24T12:20:03.740Z,0.82
2023-04-24T12:22:52.099Z,0.55
2023-04-24T12:25:20.422Z,1.50
2023-04-24T12:27:48.256Z,1.60
2023-04-24T12:30:16.678Z,0.35
2023-04-24T12:32:47.954Z,0.50
2023-04-24T12:35:21.708Z,0.73
2023-04-24T12:37:49.013Z,0.60
2023-04-24T12:40:16.737Z,0.30
2023-04-24T12:42:51.016Z,0.60
2023-04-24T12:45:18.946Z,0.63
2023-04-24T12:47:46.758Z,0.43
2023-04-24T12:50:14.978Z,1.35
2023-04-24T12:52:42.782Z,0.40
2023-04-24T12:55:10.528Z,0.50
2023-04-24T12:57:38.745Z,0.57
2023-04-24T13:00:07.198Z,0.68
2023-04-24T13:02:35.451Z,0.40
2023-04-24T13:05:03.313Z,0.65
2023-04-24T13:07:31.826Z,0.93
2023-04-24T13:09:59.099Z,0.90
2023-04-24T13:12:27.365Z,0.60
2023-04-24T13:14:54.905Z,0.40
2023-04-24T13:17:22.411Z,0.57
2023-04-24T13:19:52.055Z,0.80
2023-04-24T13:22:19.882Z,0.32
2023-04-24T13:24:49.705Z,0.38
2023-04-24T13:27:17.414Z,0.47
2023-04-24T13:29:45.021Z,0.50
2023-04-24T13:32:12.517Z,0.50
2023-04-24T13:34:39.838Z,0.43
2023-04-24T13:37:07.362Z,0.47
2023-04-24T13:39:34.568Z,0.45
2023-04-24T13:42:04.425Z,0.63
2023-04-24T13:44:32.251Z,0.43
2023-04-24T13:47:00.089Z,0.57
2023-04-24T13:49:28.124Z,1.00
2023-04-24T13:51:56.032Z,0.82
2023-04-24T13:54:24.768Z,0.50
2023-04-24T13:56:52.885Z,0.50
2023-04-24T13:59:21.659Z,0.60
2023-04-24T14:01:49.369Z,0.30
2023-04-24T14:04:16.897Z,0.40
2023-04-24T14:06:45.091Z,0.38
2023-04-24T14:09:13.464Z,0.30
2023-04-24T14:11:41.570Z,0.38
2023-04-24T14:14:09.199Z,0.30
2023-04-24T14:16:36.524Z,0.38
2023-04-24T14:19:03.721Z,0.88
2023-04-24T14:21:31.470Z,0.40
2023-04-24T14:23:58.720Z,0.40
2023-04-24T14:26:26.079Z,0.30
2023-04-24T14:28:57.967Z,0.40
2023-04-24T14:31:31.505Z,0.60
2023-04-24T14:33:59.559Z,0.70
2023-04-24T14:36:26.893Z,0.50
2023-04-24T14:38:54.186Z,0.38
2023-04-24T14:41:21.428Z,0.25
2023-04-24T14:43:48.853Z,0.47
2023-04-24T14:46:16.619Z,0.43
2023-04-24T14:48:43.934Z,0.50
2023-04-24T14:51:11.315Z,0.40
2023-04-24T14:53:38.502Z,0.40
2023-04-24T14:56:06.347Z,0.28
2023-04-24T14:58:34.046Z,0.55
2023-04-24T15:01:01.216Z,0.47
2023-04-24T15:03:28.774Z,0.20
2023-04-24T15:05:56.471Z,0.40
2023-04-24T15:08:23.768Z,0.57
2023-04-24T15:10:51.051Z,0.70
2023-04-24T15:13:18.434Z,0.82
2023-04-24T15:15:48.462Z,0.22
2023-04-24T15:18:15.808Z,0.10
2023-04-24T15:20:43.245Z,0.40
2023-04-24T15:23:10.884Z,0.32
2023-04-24T15:25:39.343Z,0.15
2023-04-24T15:28:07.019Z,0.35
2023-04-24T15:30:34.394Z,0.10
2023-04-24T15:33:02.791Z,0.13
2023-04-24T15:35:30.197Z,0.10
2023-04-24T15:38:00.100Z,0.47
2023-04-24T15:40:37.344Z,0.45
2023-04-24T15:43:04.628Z,0.10
2023-04-24T15:45:32.244Z,0.10
2023-04-24T15:47:59.580Z,0.20
2023-04-24T15:50:27.530Z,0.20
2023-04-24T15:52:54.761Z,0.25
2023-04-24T15:55:22.061Z,0.45
2023-04-24T15:57:49.624Z,0.47
2023-04-24T16:00:18.218Z,0.40
2023-04-24T16:02:46.204Z,0.20
2023-04-24T16:05:13.684Z,0.30
2023-04-24T16:07:41.116Z,0.50
2023-04-24T16:10:08.635Z,0.30
2023-04-24T16:12:35.891Z,0.20
2023-04-24T16:15:03.534Z,0.25
2023-04-24T16:17:31.106Z,0.13
2023-04-24T16:19:58.494Z,0.38
2023-04-24T16:22:25.863Z,0.52
2023-04-24T16:24:54.943Z,0.10
2023-04-24T16:27:22.391Z,0.22
2023-04-24T16:29:49.646Z,0.25
2023-04-24T16:32:16.961Z,0.45
2023-04-24T16:34:44.329Z,0.32
2023-04-24T16:37:12.334Z,0.10
2023-04-24T16:39:43.974Z,0.38
2023-04-24T16:42:13.259Z,0.32
2023-04-24T16:44:40.791Z,0.10
2023-04-24T16:47:08.620Z,0.10
2023-04-24T16:49:36.309Z,0.10
2023-04-24T16:52:03.971Z,0.25
2023-04-24T16:54:34.575Z,0.95
2023-04-24T16:57:01.846Z,0.20
2023-04-24T16:59:29.252Z,1.08
2023-04-24T17:01:56.403Z,0.30
2023-04-24T17:04:23.746Z,0.63
2023-04-24T17:06:51.163Z,0.25
2023-04-24T17:09:18.428Z,0.47
2023-04-24T17:11:45.641Z,0.30
2023-04-24T17:14:12.908Z,0.52
2023-04-24T17:16:41.125Z,0.95
2023-04-24T17:19:08.604Z,0.10
2023-04-24T17:21:35.835Z,0.20
2023-04-24T17:24:03.119Z,0.05
2023-04-24T17:26:32.384Z,0.40
2023-04-24T17:28:59.776Z,0.00
2023-04-24T17:31:27.109Z,0.15
2023-04-24T17:33:54.354Z,0.22
2023-04-24T17:36:21.656Z,0.05
2023-04-24T17:38:49.249Z,0.17
2023-04-24T17:41:16.914Z,0.10
2023-04-24T17:43:45.732Z,0.10
2023-04-24T17:46:13.398Z,0.10
2023-04-24T17:48:40.892Z,0.00
2023-04-24T17:51:08.334Z,0.22
2023-04-24T17:53:35.681Z,0.10
2023-04-24T17:56:03.948Z,0.20
2023-04-24T17:58:31.660Z,0.10
2023-04-24T18:00:59.351Z,0.28
2023-04-24T18:03:26.989Z,0.10
2023-04-24T18:05:55.150Z,0.28
2023-04-24T18:08:22.398Z,0.13
2023-04-24T18:10:49.603Z,0.43
2023-04-24T18:13:16.824Z,0.10
2023-04-24T18:15:44.156Z,0.80
2023-04-24T18:18:11.804Z,0.68
2023-04-24T18:20:39.384Z,0.40
2023-04-24T18:23:06.845Z,0.45
2023-04-24T18:25:34.415Z,0.25
2023-04-24T18:28:01.608Z,0.43
2023-04-24T18:30:31.258Z,0.43
2023-04-24T18:32:59.038Z,0.50
2023-04-24T18:35:26.690Z,0.28
2023-04-24T18:37:53.948Z,0.25
2023-04-24T18:40:21.247Z,0.30
2023-04-24T18:42:48.720Z,0.20
2023-04-24T18:45:16.095Z,0.50
2023-04-24T18:47:44.054Z,0.20
2023-04-24T18:50:12.026Z,0.08
2023-04-24T18:52:39.442Z,0.40
2023-04-24T18:55:07.434Z,0.17
2023-04-24T18:57:34.891Z,0.32
2023-04-24T19:00:02.359Z,0.43
2023-04-24T19:02:29.823Z,0.35
2023-04-24T19:04:57.278Z,0.28
2023-04-24T19:07:24.613Z,0.30
2023-04-24T19:09:52.932Z,0.47
2023-04-24T19:12:22.273Z,0.17
2023-04-24T19:14:51.785Z,0.20
2023-04-24T19:17:23.576Z,0.00
2023-04-24T19:19:51.263Z,0.80
2023-04-24T19:22:19.645Z,0.10
2023-04-24T19:24:47.639Z,0.20
2023-04-24T19:27:14.871Z,0.15
2023-04-24T19:29:42.168Z,0.20
2023-04-24T19:32:09.545Z,0.10
2023-04-24T19:34:38.394Z,0.10
2023-04-24T19:37:08.094Z,0.10
2023-04-24T19:39:35.474Z,0.00
2023-04-24T19:42:07.090Z,0.35
2023-04-24T19:44:34.903Z,0.28
2023-04-24T19:47:02.211Z,0.10
2023-04-24T19:49:29.431Z,0.30
2023-04-24T19:51:56.669Z,0.10
2023-04-24T19:54:24.441Z,0.20
2023-04-24T19:56:51.645Z,0.35
2023-04-24T19:59:19.137Z,0.35
2023-04-24T20:01:47.001Z,0.22
2023-04-24T20:04:14.516Z,0.13
2023-04-24T20:06:41.932Z,0.00
2023-04-24T20:09:09.283Z,0.15
2023-04-24T20:11:36.643Z,0.10
2023-04-24T20:14:03.960Z,0.15
2023-04-24T20:16:31.462Z,0.10
2023-04-24T20:18:59.365Z,0.25
2023-04-24T20:21:26.795Z,0.30
2023-04-24T20:23:54.169Z,0.22
2023-04-24T20:26:21.535Z,0.10
2023-04-24T20:28:49.219Z,0.10
2023-04-24T20:31:16.874Z,0.63
2023-04-24T20:33:45.521Z,0.63
2023-04-24T20:36:12.758Z,0.40
2023-04-24T20:38:40.041Z,0.20
2023-04-24T20:41:10.004Z,0.20
2023-04-24T20:43:37.286Z,0.50
2023-04-24T20:46:04.570Z,0.38
2023-04-24T20:48:32.373Z,0.50
2023-04-24T20:50:59.644Z,0.10
2023-04-24T20:53:26.864Z,0.55
2023-04-24T20:55:54.139Z,0.50
2023-04-24T20:58:22.929Z,0.30
2023-04-24T21:00:50.449Z,0.10
2023-04-24T21:03:17.922Z,0.55
2023-04-24T21:05:45.245Z,0.63
2023-04-24T21:08:12.893Z,0.22
2023-04-24T21:10:40.101Z,0.08
2023-04-24T21:13:07.495Z,0.00
2023-04-24T21:15:34.821Z,0.17
2023-04-24T21:18:02.599Z,0.32
2023-04-24T21:20:29.933Z,0.00
2023-04-24T21:22:57.120Z,0.43
2023-04-24T21:25:24.376Z,0.28
2023-04-24T21:27:51.609Z,0.32
2023-04-24T21:30:19.036Z,0.30
2023-04-24T21:32:46.246Z,0.38
2023-04-24T21:35:13.471Z,0.08
2023-04-24T21:37:41.012Z,0.10
2023-04-24T21:40:10.974Z,0.08
2023-04-24T21:42:38.825Z,0.17
2023-04-24T21:45:06.689Z,0.13
2023-04-24T21:47:33.985Z,0.10
2023-04-24T21:50:01.242Z,1.17
2023-04-24T21:52:28.434Z,0.10
2023-04-24T21:54:55.621Z,0.00
2023-04-24T21:57:22.928Z,0.55
2023-04-24T21:59:50.246Z,0.68
2023-04-24T22:02:17.533Z,0.35
2023-04-24T22:04:45.163Z,0.15
2023-04-24T22:07:12.720Z,0.22
2023-04-24T22:09:39.873Z,0.50
2023-04-24T22:12:07.228Z,0.40
2023-04-24T22:14:34.565Z,0.15
2023-04-24T22:17:02.922Z,0.68
2023-04-24T22:19:30.182Z,0.98
2023-04-24T22:21:57.533Z,0.45
2023-04-24T22:24:24.848Z,0.00
2023-04-24T22:26:52.070Z,0.40
2023-04-24T22:29:19.252Z,0.57
2023-04-24T22:31:46.523Z,0.47
2023-04-24T22:34:13.772Z,0.00
2023-04-24T22:36:40.965Z,0.15
2023-04-24T22:39:08.236Z,0.15
2023-04-24T22:41:35.824Z,0.30
2023-04-24T22:44:03.131Z,0.45
2023-04-24T22:46:31.183Z,0.28
2023-04-24T22:48:58.509Z,0.28
2023-04-24T22:51:26.057Z,0.40
2023-04-24T22:53:53.413Z,0.20
2023-04-24T22:56:20.700Z,0.17
2023-04-24T22:58:47.920Z,0.82
2023-04-24T23:01:15.159Z,0.98
2023-04-24T23:03:42.623Z,0.10
2023-04-24T23:06:10.039Z,0.47
2023-04-24T23:08:37.247Z,0.30
2023-04-24T23:11:04.413Z,0.52
2023-04-24T23:13:31.639Z,0.22
2023-04-24T23:15:58.935Z,0.40
2023-04-24T23:18:26.147Z,0.35
2023-04-24T23:20:53.312Z,0.50
2023-04-24T23:23:20.519Z,0.38
2023-04-24T23:25:47.717Z,0.10
2023-04-24T23:28:14.936Z,0.95
2023-04-24T23:30:42.188Z,1.27
2023-04-24T23:33:09.444Z,0.45
2023-04-24T23:35:36.694Z,0.75
2023-04-24T23:38:03.905Z,0.20
2023-04-24T23:40:31.095Z,0.20
2023-04-24T23:43:06.663Z,0.10
2023-04-24T23:45:35.609Z,0.28
2023-04-24T23:48:04.153Z,0.28
2023-04-24T23:50:31.459Z,0.30
2023-04-24T23:52:58.758Z,0.30
2023-04-24T23:55:26.110Z,0.75
2023-04-24T23:57:53.764Z,0.45
